createdAt,value
2018-03-25T00:05:24.917Z,19.4
2018-03-25T00:22:11.495Z,19.4
2018-03-25T00:38:56.728Z,19.4
2018-03-25T00:55:42.608Z,19.0
2018-03-25T01:12:28.341Z,19.0
2018-03-25T01:29:14.046Z,19.0
2018-03-25T01:45:59.632Z,19.0
2018-03-25T02:02:45.289Z,19.0
2018-03-25T02:19:30.852Z,19.0
2018-03-25T02:36:16.401Z,18.7
2018-03-25T02:53:01.642Z,18.7
2018-03-25T03:09:46.928Z,18.7
2018-03-25T03:26:32.171Z,18.7
2018-03-25T03:43:17.248Z,18.4
2018-03-25T04:00:02.363Z,18.4
2018-03-25T04:16:47.308Z,18.4
2018-03-25T04:33:32.267Z,18.4
2018-03-25T04:50:17.219Z,18.4
2018-03-25T05:07:02.021Z,18.4
2018-03-25T05:23:46.866Z,18.4
2018-03-25T05:40:31.750Z,18.4
2018-03-25T05:57:16.485Z,18.4
2018-03-25T06:14:01.966Z,18.4
2018-03-25T06:30:46.152Z,18.4
2018-03-25T06:47:31.180Z,18.4
2018-03-25T07:04:16.209Z,18.4
2018-03-25T07:21:01.231Z,18.7
2018-03-25T07:37:46.261Z,18.7
2018-03-25T07:54:31.350Z,18.7
2018-03-25T08:11:16.474Z,18.7
2018-03-25T08:28:02.257Z,18.7
2018-03-25T08:44:47.901Z,19.0
2018-03-25T09:01:33.531Z,19.0
2018-03-25T09:18:19.332Z,19.0
2018-03-25T09:35:05.071Z,19.0
2018-03-25T09:51:50.987Z,19.4
2018-03-25T10:08:36.832Z,19.4
2018-03-25T10:25:22.986Z,19.4
2018-03-25T10:42:09.096Z,19.7
2018-03-25T10:58:56.016Z,19.7
2018-03-25T11:15:41.827Z,20.0
2018-03-25T11:32:28.334Z,20.0
2018-03-25T11:49:15.186Z,20.3
2018-03-25T12:06:02.646Z,20.6
2018-03-25T12:22:49.779Z,20.6
2018-03-25T12:39:37.011Z,20.6
2018-03-25T12:56:24.425Z,20.3
2018-03-25T13:13:11.549Z,20.3
2018-03-25T13:29:58.611Z,20.3
2018-03-25T13:46:45.539Z,20.3
2018-03-25T14:03:32.439Z,20.3
2018-03-25T14:20:19.333Z,20.0
2018-03-25T14:37:06.075Z,20.0
2018-03-25T14:53:52.960Z,20.0
2018-03-25T15:10:39.827Z,20.0
2018-03-25T15:27:26.588Z,20.0
2018-03-25T15:44:13.232Z,20.0
2018-03-25T16:01:00.110Z,20.0
2018-03-25T16:17:46.760Z,20.0
2018-03-25T16:34:33.609Z,20.0
2018-03-25T16:51:20.486Z,20.0
2018-03-25T17:08:07.519Z,20.0
2018-03-25T17:24:54.165Z,19.7
2018-03-25T17:41:40.928Z,19.7
2018-03-25T17:58:27.724Z,19.7
2018-03-25T18:15:14.572Z,19.7
2018-03-25T18:32:01.320Z,19.7
2018-03-25T18:48:48.069Z,19.7
2018-03-25T19:05:34.633Z,19.7
2018-03-25T19:22:21.460Z,19.7
2018-03-25T19:39:07.070Z,19.7
2018-03-25T19:55:53.035Z,19.4
2018-03-25T20:12:38.769Z,19.7
2018-03-25T20:29:25.504Z,19.4
2018-03-25T20:46:10.532Z,19.4
2018-03-25T21:02:56.371Z,19.4
2018-03-25T21:19:42.183Z,19.4
2018-03-25T21:36:28.197Z,19.4
2018-03-25T21:53:13.702Z,19.4
2018-03-25T22:09:59.281Z,19.4
2018-03-25T22:26:44.853Z,19.0
2018-03-25T22:43:30.412Z,19.0
2018-03-25T23:00:15.818Z,19.0
2018-03-25T23:17:01.165Z,19.0
2018-03-25T23:33:46.621Z,18.7
2018-03-25T23:50:31.885Z,18.7
